KGUS/GUS METAR and TAF weather

Enter ICAO airport designator
Station Type Date Time Source
KGUS METAR 2018/12/11 21:56 UTC NOAA

KGUS 112156Z AUTO 26006KT 10SM CLR 01/M01 A3003 RMK AO2 SLP183 T00131013 $


Station Type Date Time Source
KGUS Decoded METAR 2018/12/11 21:56 UTC NOAA

Grissom Air Force Base / Peru, IN, United States (KGUS) 40-39N 086-09W
Dec 11, 2018 - 04:56 PM EST / 2018.12.11 2156 UTC
Wind: from the W (260 degrees) at 7 MPH (6 KT):0
Visibility: 10 mile(s):0
Sky conditions: clear
Temperature: 34.3 F (1.3 C)
Windchill: 28 F (-2 C):1
Dew Point: 29.7 F (-1.3 C)
Relative Humidity: 82%
Pressure (altimeter): 30.03 in. Hg (1016 hPa)
ob: KGUS 112156Z AUTO 26006KT 10SM CLR 01/M01 A3003 RMK AO2 SLP183 T00131013
cycle: 22

Station Type Date Time Source
KGUS TAF 2018/12/11 19:12 UTC NOAA

TAF KGUS 111905Z 1119/1301 23012G18KT 9999 FEW250 QNH2998INS
BECMG 1122/1123 23006KT 9999 FEW250 QNH2994INS
BECMG 1208/1209 23009KT 9999 BKN150 QNH2987INS
BECMG 1213/1214 23015G25KT 9999 BKN007 BKN020 610079 QNH2980INS
TEMPO 1214/1217 8000 -FZDZ OVC007 660002
BECMG 1222/1223 23009KT 9999 BKN007 BKN020 610079 QNH2988INS TX03/1120Z TNM03/1210Z


Example: see airport list